STE weather

Stevens Point Municipal Airport
Stevens Point, Wisconsin, United States

Public forecast

Using degrees Fahrenheit for public forecast. Weather courtesy of forecast.io.

Current aviation weather report (METAR) for Stevens Point Municipal Airport

Retrieved 2020/02/19 06:35 UTC (9 minutes ago):

KSTE 190635Z AUTO 28004KT 10SM CLR M15/M20 A3043 RMK AO2 T11461200

Closest aviation forecast (TAF) to Stevens Point Municipal Airport

Closest forecast is Central Wisconsin Airport, 15.1 nm (28.0 km) NNW. Retrieved 2020/02/19 06:22 UTC (22 minutes ago):

TAF KCWA 190520Z 1906/2006 31005KT P6SM SKC AMD LTD TO CLD VIS AND WIND TIL 191200